Time;durP1;ratioP1;P1;durP2;ratioP2;P2;SDS_P1;SDS_P2;PMS_P1;PMS_P2;Temp;Humidity;BMP_temperature;BMP_pressure;BME280_temperature;BME280_humidity;BME280_pressure;Samples;Min_cycle;Max_cycle;Signal;HPM_P1;HPM_P2
2021/11/18 00:01:05;;;;;;;;;;;6.90;99.90;;;;;;5026405;28;19974;-67
2021/11/18 00:03:30;;;;;;;;;;;6.90;99.90;;;;;;5026480;28;19913;-67
2021/11/18 00:05:56;;;;;;;;;;;6.90;99.90;;;;;;5025987;28;20028;-67
2021/11/18 00:08:22;;;;;;;;;;;6.80;99.90;;;;;;5028341;28;19913;-67
2021/11/18 00:10:51;;;;;;;;;;;6.80;99.90;;;;;;5027554;28;19928;-67
2021/11/18 00:13:17;;;;;;;;;;;6.80;99.90;;;;;;5024157;28;20374;-67
2021/11/18 00:15:44;;;;;;;;;;;6.80;99.90;;;;;;5027741;28;19913;-67
2021/11/18 00:18:11;;;;;;;;;;;6.80;99.90;;;;;;5027824;28;19917;-67
2021/11/18 00:20:39;;;;;;;;;;;6.80;99.90;;;;;;5025922;28;20403;-67
2021/11/18 00:23:05;;;;;;;;;;;6.80;99.90;;;;;;5025819;28;19920;-67
2021/11/18 00:25:31;;;;;;;;;;;6.80;99.90;;;;;;5026104;28;19943;-67
2021/11/18 00:27:58;;;;;;;;;;;6.80;99.90;;;;;;5025359;28;22406;-67
2021/11/18 00:30:24;;;;;;;;;;;6.80;99.90;;;;;;5026437;28;19928;-67
2021/11/18 00:32:49;;;;;;;;;;;6.80;99.90;;;;;;5026195;28;20428;-67
2021/11/18 00:35:17;;;;;;;;;;;6.80;99.90;;;;;;5025169;28;19924;-67
2021/11/18 00:37:43;;;;;;;;;;;6.80;99.90;;;;;;5026452;28;19963;-67
2021/11/18 00:40:09;;;;;;;;;;;6.80;99.90;;;;;;5032696;22;19925;-67
2021/11/18 00:42:35;;;;;;;;;;;6.80;99.90;;;;;;5027037;28;19920;-67
2021/11/18 00:45:00;;;;;;;;;;;6.80;99.90;;;;;;5028392;28;19995;-67
2021/11/18 00:47:26;;;;;;;;;;;6.80;99.90;;;;;;5027805;28;20371;-67
2021/11/18 00:49:52;;;;;;;;;;;6.80;99.90;;;;;;5010374;28;19921;-67
2021/11/18 00:52:18;;;;;;;;;;;6.80;99.90;;;;;;5024853;28;19976;-67
2021/11/18 00:54:43;;;;;;;;;;;6.80;99.90;;;;;;5026437;28;20348;-67
2021/11/18 00:57:08;;;;;;;;;;;6.80;99.90;;;;;;5025018;28;20360;-67
2021/11/18 00:59:34;;;;;;;;;;;6.80;99.90;;;;;;5027458;28;20359;-67
2021/11/18 01:02:00;;;;;;;;;;;6.80;99.90;;;;;;5007049;28;19963;-67
2021/11/18 01:04:27;;;;;;;;;;;6.80;99.90;;;;;;5028469;28;20327;-67
2021/11/18 01:06:53;;;;;;;;;;;6.80;99.90;;;;;;5027094;28;19978;-67
2021/11/18 01:09:18;;;;;;;;;;;6.80;99.90;;;;;;5024143;28;19917;-67
2021/11/18 01:11:44;;;;;;;;;;;6.70;99.90;;;;;;5009531;28;20317;-67
2021/11/18 01:14:11;;;;;;;;;;;6.70;99.90;;;;;;5026327;28;19967;-67
2021/11/18 01:16:38;;;;;;;;;;;6.70;99.90;;;;;;5023383;28;19990;-67
2021/11/18 01:19:04;;;;;;;;;;;6.70;99.90;;;;;;5025933;28;19923;-67
2021/11/18 01:21:30;;;;;;;;;;;6.70;99.90;;;;;;5026525;28;19913;-67
2021/11/18 01:23:55;;;;;;;;;;;6.70;99.90;;;;;;5025496;28;20004;-67
2021/11/18 01:26:21;;;;;;;;;;;6.70;99.90;;;;;;5023178;28;19939;-67
2021/11/18 01:28:48;;;;;;;;;;;6.70;99.90;;;;;;5026718;28;20618;-67
2021/11/18 01:31:13;;;;;;;;;;;6.70;99.90;;;;;;5023816;28;19960;-67
2021/11/18 01:33:39;;;;;;;;;;;6.70;99.90;;;;;;5021754;28;19955;-67
2021/11/18 01:36:05;;;;;;;;;;;6.70;99.90;;;;;;5022686;28;19917;-67
2021/11/18 01:38:31;;;;;;;;;;;6.70;99.90;;;;;;5028090;28;19917;-67
2021/11/18 01:40:58;;;;;;;;;;;6.70;99.90;;;;;;5023098;28;19923;-67
2021/11/18 01:43:26;;;;;;;;;;;6.70;99.90;;;;;;5026362;28;19947;-67
2021/11/18 01:45:51;;;;;;;;;;;6.70;99.90;;;;;;5022275;28;19922;-67
2021/11/18 01:48:17;;;;;;;;;;;6.70;99.90;;;;;;5025719;28;20403;-67
2021/11/18 01:50:43;;;;;;;;;;;6.70;99.90;;;;;;5021382;28;20186;-67
2021/11/18 01:53:13;;;;;;;;;;;6.70;99.90;;;;;;5023931;28;19913;-67
2021/11/18 01:55:40;;;;;;;;;;;6.70;99.90;;;;;;5023321;28;19925;-67
2021/11/18 01:58:05;;;;;;;;;;;6.70;99.90;;;;;;5027034;28;20011;-67
2021/11/18 02:00:33;;;;;;;;;;;6.70;99.90;;;;;;5025366;28;20035;-67
2021/11/18 02:02:58;;;;;;;;;;;6.60;99.90;;;;;;5025564;28;19920;-67
2021/11/18 02:05:33;;;;;;;;;;;6.60;99.90;;;;;;5008413;28;19913;-67
2021/11/18 02:07:59;;;;;;;;;;;6.60;99.90;;;;;;5026522;28;19960;-67
2021/11/18 02:10:29;;;;;;;;;;;6.60;99.90;;;;;;5025266;28;19959;-67
2021/11/18 02:12:56;;;;;;;;;;;6.60;99.90;;;;;;5025301;28;20280;-67
2021/11/18 02:15:32;;;;;;;;;;;6.60;99.90;;;;;;5023995;28;19944;-67
2021/11/18 02:17:58;;;;;;;;;;;6.60;99.90;;;;;;5027406;28;20008;-67
2021/11/18 02:20:25;;;;;;;;;;;6.60;99.90;;;;;;5020846;28;19913;-67
2021/11/18 02:22:51;;;;;;;;;;;6.60;99.90;;;;;;5022253;28;20012;-67
2021/11/18 02:25:16;;;;;;;;;;;6.60;99.90;;;;;;5025657;28;20005;-67
2021/11/18 02:27:42;;;;;;;;;;;6.60;99.90;;;;;;5022517;28;20273;-67
2021/11/18 02:30:08;;;;;;;;;;;6.60;99.90;;;;;;5007298;28;19917;-67
2021/11/18 02:32:37;;;;;;;;;;;6.70;99.90;;;;;;5022026;28;19959;-67
2021/11/18 02:35:11;;;;;;;;;;;6.70;99.90;;;;;;5023684;28;19913;-67
2021/11/18 02:37:36;;;;;;;;;;;6.70;99.90;;;;;;5022393;28;19945;-67
2021/11/18 02:40:03;;;;;;;;;;;6.70;99.90;;;;;;5005883;28;19926;-67
2021/11/18 02:42:28;;;;;;;;;;;6.70;99.90;;;;;;5023439;28;19925;-67
2021/11/18 02:44:54;;;;;;;;;;;6.70;99.90;;;;;;5023074;28;19913;-67
2021/11/18 02:47:19;;;;;;;;;;;6.80;99.90;;;;;;5024255;28;19917;-67
2021/11/18 02:49:46;;;;;;;;;;;6.80;99.90;;;;;;5026054;28;19963;-67
2021/11/18 02:52:14;;;;;;;;;;;6.80;99.90;;;;;;5022543;28;20398;-67
2021/11/18 02:54:40;;;;;;;;;;;6.80;99.90;;;;;;5025511;28;19932;-67
2021/11/18 02:57:06;;;;;;;;;;;6.80;99.90;;;;;;5028409;28;19917;-67
2021/11/18 02:59:32;;;;;;;;;;;6.80;99.90;;;;;;5031197;28;19920;-67
2021/11/18 03:01:58;;;;;;;;;;;6.90;99.90;;;;;;5024712;28;19913;-67
2021/11/18 03:04:23;;;;;;;;;;;6.80;99.90;;;;;;5029622;28;19960;-67
2021/11/18 03:06:49;;;;;;;;;;;6.90;99.90;;;;;;5027527;28;19913;-67
2021/11/18 03:09:14;;;;;;;;;;;6.90;99.90;;;;;;5030426;28;20351;-67
2021/11/18 03:11:39;;;;;;;;;;;6.90;99.90;;;;;;5026765;28;20371;-67
2021/11/18 03:14:05;;;;;;;;;;;6.90;99.90;;;;;;5024777;28;19928;-67
2021/11/18 03:16:31;;;;;;;;;;;7.00;99.90;;;;;;5026962;28;19914;-67
2021/11/18 03:18:56;;;;;;;;;;;6.90;99.90;;;;;;5028755;28;19970;-67
2021/11/18 03:21:24;;;;;;;;;;;7.00;99.90;;;;;;5027270;28;19939;-67
2021/11/18 03:23:50;;;;;;;;;;;7.00;99.90;;;;;;5029575;28;20311;-67
2021/11/18 03:26:17;;;;;;;;;;;7.00;99.90;;;;;;5008146;28;19921;-67
2021/11/18 03:28:43;;;;;;;;;;;7.00;99.90;;;;;;5027988;28;20399;-67
2021/11/18 03:31:09;;;;;;;;;;;7.00;99.90;;;;;;5025949;28;19917;-67
2021/11/18 03:33:55;;;;;;;;;;;7.00;99.90;;;;;;5028098;28;19974;-67
2021/11/18 03:36:21;;;;;;;;;;;7.00;99.90;;;;;;5028212;28;19967;-67
2021/11/18 03:38:47;;;;;;;;;;;7.00;99.90;;;;;;5028820;28;19925;-67
2021/11/18 03:41:13;;;;;;;;;;;7.00;99.90;;;;;;5026682;28;19920;-67
2021/11/18 03:43:40;;;;;;;;;;;7.00;99.90;;;;;;5028198;28;19963;-67
2021/11/18 03:46:06;;;;;;;;;;;7.00;99.90;;;;;;5026232;28;19914;-67
2021/11/18 03:48:33;;;;;;;;;;;7.00;99.90;;;;;;5029088;28;19917;-67
2021/11/18 03:51:00;;;;;;;;;;;7.00;99.90;;;;;;5024522;28;20606;-67
2021/11/18 03:53:25;;;;;;;;;;;7.00;99.90;;;;;;5025617;28;19913;-67
2021/11/18 03:55:50;;;;;;;;;;;7.00;99.90;;;;;;5028877;28;19971;-67
2021/11/18 03:58:16;;;;;;;;;;;7.00;99.90;;;;;;5025550;28;19924;-67
2021/11/18 04:00:42;;;;;;;;;;;7.10;99.90;;;;;;5024823;28;20004;-67
2021/11/18 04:03:08;;;;;;;;;;;7.10;99.90;;;;;;5025062;28;19913;-67
2021/11/18 04:05:34;;;;;;;;;;;7.10;99.90;;;;;;5026095;28;19913;-67
2021/11/18 04:08:00;;;;;;;;;;;7.10;99.90;;;;;;5028754;28;19924;-67
2021/11/18 04:10:26;;;;;;;;;;;7.10;99.90;;;;;;5025837;28;19917;-67
2021/11/18 04:12:52;;;;;;;;;;;7.10;99.90;;;;;;5025953;28;20345;-67
2021/11/18 04:15:19;;;;;;;;;;;7.10;99.90;;;;;;5028461;28;19920;-67
2021/11/18 04:17:44;;;;;;;;;;;7.10;99.90;;;;;;5027714;28;20419;-67
2021/11/18 04:20:11;;;;;;;;;;;7.10;99.90;;;;;;5026891;28;20000;-67
2021/11/18 04:22:37;;;;;;;;;;;7.10;99.90;;;;;;5027357;28;19921;-67
2021/11/18 04:25:04;;;;;;;;;;;7.20;99.90;;;;;;5028147;28;20004;-67
2021/11/18 04:27:29;;;;;;;;;;;7.20;99.90;;;;;;5025582;28;19913;-67
2021/11/18 04:29:54;;;;;;;;;;;7.20;99.90;;;;;;5026700;28;19928;-67
2021/11/18 04:32:21;;;;;;;;;;;7.30;99.90;;;;;;5023475;28;19913;-67
2021/11/18 04:34:48;;;;;;;;;;;7.30;99.90;;;;;;5028856;28;19976;-67
2021/11/18 04:37:13;;;;;;;;;;;7.40;99.90;;;;;;5004124;28;20058;-67
2021/11/18 04:39:39;;;;;;;;;;;7.40;99.90;;;;;;5026503;28;20363;-67
2021/11/18 04:42:06;;;;;;;;;;;7.40;99.90;;;;;;5021820;28;19921;-67
2021/11/18 04:44:32;;;;;;;;;;;7.40;99.90;;;;;;5028080;28;19909;-67
2021/11/18 04:46:59;;;;;;;;;;;7.40;99.90;;;;;;5025998;28;19925;-67
2021/11/18 04:49:24;;;;;;;;;;;7.50;99.90;;;;;;5027315;28;19917;-67
2021/11/18 04:51:50;;;;;;;;;;;7.50;99.90;;;;;;5023409;28;20276;-67
2021/11/18 04:54:15;;;;;;;;;;;7.50;99.90;;;;;;5024977;28;19913;-67
2021/11/18 04:56:41;;;;;;;;;;;7.50;99.90;;;;;;5025688;28;20285;-67
2021/11/18 04:59:07;;;;;;;;;;;7.60;99.90;;;;;;5026080;28;19917;-67
2021/11/18 05:01:34;;;;;;;;;;;7.60;99.90;;;;;;5005084;28;20410;-67
2021/11/18 05:04:00;;;;;;;;;;;7.60;99.90;;;;;;5026521;28;19917;-67
2021/11/18 05:06:26;;;;;;;;;;;7.60;99.90;;;;;;5024784;28;20328;-67
2021/11/18 05:08:51;;;;;;;;;;;7.60;99.90;;;;;;5027350;28;19957;-67
2021/11/18 05:11:17;;;;;;;;;;;7.60;99.90;;;;;;5021193;28;19953;-67
2021/11/18 05:13:43;;;;;;;;;;;7.70;99.90;;;;;;5009840;28;19971;-67
2021/11/18 05:16:11;;;;;;;;;;;7.70;99.90;;;;;;5025152;28;19913;-67
2021/11/18 05:18:36;;;;;;;;;;;7.70;99.90;;;;;;5024954;28;20403;-67
2021/11/18 05:21:03;;;;;;;;;;;7.70;99.90;;;;;;5020736;28;19913;-67
2021/11/18 05:23:29;;;;;;;;;;;7.70;99.90;;;;;;5025197;28;19913;-67
2021/11/18 05:25:55;;;;;;;;;;;7.70;99.90;;;;;;5023896;28;19920;-67
2021/11/18 05:28:21;;;;;;;;;;;7.70;99.90;;;;;;5019839;28;19913;-66
2021/11/18 05:30:46;;;;;;;;;;;7.70;99.90;;;;;;5021534;28;20371;-66
2021/11/18 05:33:13;;;;;;;;;;;7.70;99.90;;;;;;5024750;28;20299;-67
2021/11/18 05:35:39;;;;;;;;;;;7.70;99.90;;;;;;5024928;28;20313;-67
2021/11/18 05:38:05;;;;;;;;;;;7.80;99.90;;;;;;5025205;28;19955;-67
2021/11/18 05:40:31;;;;;;;;;;;7.80;99.90;;;;;;5026178;28;19917;-67
2021/11/18 05:42:57;;;;;;;;;;;7.80;99.90;;;;;;5023944;28;19928;-67
2021/11/18 05:45:24;;;;;;;;;;;7.80;99.90;;;;;;5022735;28;19913;-68
2021/11/18 05:47:49;;;;;;;;;;;7.80;99.90;;;;;;5023085;28;19921;-66
2021/11/18 05:50:15;;;;;;;;;;;7.90;99.90;;;;;;5020408;28;19925;-68
2021/11/18 05:52:42;;;;;;;;;;;7.90;99.90;;;;;;5025435;28;19909;-67
2021/11/18 05:55:08;;;;;;;;;;;7.90;99.90;;;;;;5024919;28;19932;-68
2021/11/18 05:57:34;;;;;;;;;;;7.90;99.90;;;;;;5024826;28;20403;-67
2021/11/18 05:59:59;;;;;;;;;;;7.90;99.90;;;;;;5025752;28;19913;-68
2021/11/18 06:02:25;;;;;;;;;;;8.00;99.90;;;;;;5023971;28;19913;-67
2021/11/18 06:04:50;;;;;;;;;;;8.00;99.90;;;;;;5020365;28;19917;-68
2021/11/18 06:07:16;;;;;;;;;;;8.00;99.90;;;;;;5024741;28;19921;-68
2021/11/18 06:09:41;;;;;;;;;;;8.00;99.90;;;;;;5022743;28;19917;-68
2021/11/18 06:12:09;;;;;;;;;;;8.00;99.90;;;;;;5001823;28;19921;-68
2021/11/18 06:14:34;;;;;;;;;;;8.10;99.90;;;;;;5023979;28;20067;-67
2021/11/18 06:17:00;;;;;;;;;;;8.00;99.90;;;;;;5024301;28;20012;-68
2021/11/18 06:19:25;;;;;;;;;;;8.10;99.90;;;;;;5022336;28;20403;-69
2021/11/18 06:21:53;;;;;;;;;;;8.10;99.90;;;;;;5025617;28;19924;-68
2021/11/18 06:24:19;;;;;;;;;;;8.10;99.90;;;;;;5025817;28;20670;-69
2021/11/18 06:26:44;;;;;;;;;;;8.10;99.90;;;;;;5026068;28;19917;-67
2021/11/18 06:29:10;;;;;;;;;;;8.10;99.90;;;;;;5027043;28;20375;-67
2021/11/18 06:31:36;;;;;;;;;;;8.10;99.90;;;;;;5028821;28;20435;-68
2021/11/18 06:34:01;;;;;;;;;;;8.10;99.90;;;;;;5027919;28;19921;-67
2021/11/18 06:36:27;;;;;;;;;;;8.10;99.90;;;;;;5029108;28;19949;-67
2021/11/18 06:38:52;;;;;;;;;;;8.10;99.90;;;;;;5042658;23;20252;-61
2021/11/18 06:41:19;;;;;;;;;;;8.10;99.90;;;;;;5027455;28;19913;-61
2021/11/18 06:43:45;;;;;;;;;;;8.10;99.90;;;;;;5026986;28;20444;-61
2021/11/18 06:46:11;;;;;;;;;;;8.10;99.90;;;;;;5027720;28;19996;-61
2021/11/18 06:48:36;;;;;;;;;;;8.10;99.90;;;;;;5029662;28;20012;-61
2021/11/18 06:51:05;;;;;;;;;;;8.10;99.90;;;;;;5023542;28;20052;-62
2021/11/18 06:53:31;;;;;;;;;;;8.10;99.90;;;;;;5029214;28;19921;-63
2021/11/18 06:55:57;;;;;;;;;;;8.10;99.90;;;;;;5027963;28;20357;-62
2021/11/18 06:58:22;;;;;;;;;;;8.10;99.90;;;;;;5029016;28;20622;-62
2021/11/18 07:00:48;;;;;;;;;;;8.10;99.90;;;;;;5010601;28;19920;-62
2021/11/18 07:03:15;;;;;;;;;;;8.10;99.90;;;;;;5027112;28;19984;-62
2021/11/18 07:05:40;;;;;;;;;;;8.10;99.90;;;;;;5023466;28;20008;-62
2021/11/18 07:08:06;;;;;;;;;;;8.10;99.90;;;;;;5027392;28;20008;-62
2021/11/18 07:10:32;;;;;;;;;;;8.10;99.90;;;;;;5020061;28;20024;-62
2021/11/18 07:12:58;;;;;;;;;;;8.10;99.90;;;;;;5022873;28;20448;-63
2021/11/18 07:15:24;;;;;;;;;;;8.10;99.90;;;;;;5004201;28;20000;-61
2021/11/18 07:17:50;;;;;;;;;;;8.10;99.90;;;;;;5025373;28;19913;-63
2021/11/18 07:20:16;;;;;;;;;;;8.10;99.90;;;;;;5023889;28;20290;-62
2021/11/18 07:22:41;;;;;;;;;;;8.10;99.90;;;;;;5027329;28;20328;-62
2021/11/18 07:25:09;;;;;;;;;;;8.10;99.90;;;;;;5024173;28;19967;-62
2021/11/18 07:27:34;;;;;;;;;;;8.10;99.90;;;;;;5024557;28;19936;-62
2021/11/18 07:30:00;;;;;;;;;;;8.10;99.90;;;;;;5019180;28;19921;-62
2021/11/18 07:32:26;;;;;;;;;;;8.20;99.90;;;;;;5025303;28;20388;-61
2021/11/18 07:34:51;;;;;;;;;;;8.20;99.90;;;;;;5023142;28;19921;-62
2021/11/18 07:37:17;;;;;;;;;;;8.30;99.90;;;;;;5026360;28;19920;-62
2021/11/18 07:39:42;;;;;;;;;;;8.30;99.90;;;;;;5025348;28;19921;-62
2021/11/18 07:42:08;;;;;;;;;;;8.30;99.90;;;;;;5026098;28;20849;-61
2021/11/18 07:44:33;;;;;;;;;;;8.30;99.90;;;;;;5020759;28;19921;-62
2021/11/18 07:46:59;;;;;;;;;;;8.40;99.90;;;;;;5024147;28;19944;-62
2021/11/18 07:49:24;;;;;;;;;;;8.40;99.90;;;;;;5024944;28;19917;-62
2021/11/18 07:51:50;;;;;;;;;;;8.40;99.90;;;;;;5026386;28;19928;-62
2021/11/18 07:54:16;;;;;;;;;;;8.50;99.90;;;;;;5023950;28;19924;-62
2021/11/18 07:56:43;;;;;;;;;;;8.50;99.90;;;;;;5026525;28;20785;-61
2021/11/18 07:59:08;;;;;;;;;;;8.50;99.90;;;;;;5027527;28;19913;-62
2021/11/18 08:01:34;;;;;;;;;;;8.50;99.90;;;;;;5023322;28;19924;-62
2021/11/18 08:04:00;;;;;;;;;;;8.60;99.90;;;;;;5025144;28;20360;-62
2021/11/18 08:06:27;;;;;;;;;;;8.60;99.90;;;;;;5027433;28;19966;-62
2021/11/18 08:08:54;;;;;;;;;;;8.70;99.90;;;;;;5007673;28;19921;-62
2021/11/18 08:11:21;;;;;;;;;;;8.70;99.90;;;;;;5023875;28;19940;-62
2021/11/18 08:13:47;;;;;;;;;;;8.70;99.90;;;;;;5025815;28;19918;-62
2021/11/18 08:16:12;;;;;;;;;;;8.80;99.90;;;;;;5025284;28;19913;-62
2021/11/18 08:18:38;;;;;;;;;;;8.80;99.90;;;;;;5026249;28;19959;-62
2021/11/18 08:21:03;;;;;;;;;;;8.80;99.90;;;;;;5024109;28;19917;-62
2021/11/18 08:23:32;;;;;;;;;;;8.80;99.90;;;;;;5025245;28;19913;-63
2021/11/18 08:25:58;;;;;;;;;;;8.90;99.90;;;;;;5026381;28;19920;-62
2021/11/18 08:28:24;;;;;;;;;;;8.90;99.90;;;;;;5025613;28;19999;-62
2021/11/18 08:30:49;;;;;;;;;;;9.00;99.90;;;;;;5006935;28;19959;-63
2021/11/18 08:33:16;;;;;;;;;;;9.10;99.90;;;;;;5024203;28;20169;-62
2021/11/18 08:35:42;;;;;;;;;;;9.10;99.90;;;;;;5024507;28;19917;-62
2021/11/18 08:38:10;;;;;;;;;;;9.10;99.90;;;;;;5022312;28;20068;-62
2021/11/18 08:40:37;;;;;;;;;;;9.10;99.90;;;;;;5023609;28;20442;-62
2021/11/18 08:43:03;;;;;;;;;;;9.20;99.90;;;;;;5011630;28;20111;-62
2021/11/18 08:45:28;;;;;;;;;;;9.30;99.90;;;;;;5023270;28;20389;-62
2021/11/18 08:47:54;;;;;;;;;;;9.20;99.90;;;;;;5022843;28;19917;-62
2021/11/18 08:50:21;;;;;;;;;;;9.30;99.90;;;;;;5023430;28;19921;-62
2021/11/18 08:52:46;;;;;;;;;;;9.30;99.90;;;;;;5003280;28;19921;-62
2021/11/18 08:55:14;;;;;;;;;;;9.30;99.90;;;;;;5024248;28;19924;-63
2021/11/18 08:57:40;;;;;;;;;;;9.30;99.90;;;;;;5020623;28;20007;-61
2021/11/18 09:00:09;;;;;;;;;;;9.30;99.90;;;;;;5021606;28;20369;-62
2021/11/18 09:02:34;;;;;;;;;;;9.30;99.90;;;;;;5020719;28;19924;-65
2021/11/18 09:05:00;;;;;;;;;;;9.30;99.90;;;;;;5005852;28;19913;-62
2021/11/18 09:07:26;;;;;;;;;;;9.30;99.90;;;;;;5006993;28;20057;-62
2021/11/18 09:09:51;;;;;;;;;;;9.40;99.90;;;;;;5020020;28;19925;-63
2021/11/18 09:12:17;;;;;;;;;;;9.40;99.90;;;;;;5020640;28;19921;-63
2021/11/18 09:14:42;;;;;;;;;;;9.50;99.90;;;;;;5020350;28;19920;-62
2021/11/18 09:17:09;;;;;;;;;;;9.50;99.90;;;;;;5024018;28;19971;-62
2021/11/18 09:19:35;;;;;;;;;;;9.60;99.90;;;;;;5022192;28;19917;-63
2021/11/18 09:22:02;;;;;;;;;;;9.60;99.90;;;;;;5022910;28;19920;-63
2021/11/18 09:24:34;;;;;;;;;;;9.60;99.90;;;;;;5023223;28;20385;-62
2021/11/18 09:27:02;;;;;;;;;;;9.60;99.90;;;;;;5016775;28;19940;-62
2021/11/18 09:29:28;;;;;;;;;;;9.70;99.90;;;;;;5023207;28;20285;-62
2021/11/18 09:31:55;;;;;;;;;;;9.70;99.90;;;;;;5005339;28;19924;-63
2021/11/18 09:34:21;;;;;;;;;;;9.70;99.90;;;;;;5025876;28;19917;-63
2021/11/18 09:36:48;;;;;;;;;;;9.80;99.90;;;;;;5021660;28;19917;-63
2021/11/18 09:39:13;;;;;;;;;;;9.90;99.90;;;;;;5019226;28;19917;-62
2021/11/18 09:41:46;;;;;;;;;;;9.90;99.90;;;;;;5019092;28;19917;-61
2021/11/18 09:44:11;;;;;;;;;;;10.00;99.90;;;;;;5021653;28;19979;-62
2021/11/18 09:46:55;;;;;;;;;;;10.00;99.90;;;;;;5021069;28;20358;-63
2021/11/18 09:49:36;;;;;;;;;;;10.00;99.90;;;;;;5022990;28;19972;-61
2021/11/18 09:52:10;;;;;;;;;;;10.00;99.90;;;;;;5023383;28;19913;-62
2021/11/18 09:54:38;;;;;;;;;;;10.10;99.90;;;;;;5021371;28;20322;-62
2021/11/18 09:57:12;;;;;;;;;;;10.10;99.90;;;;;;5024919;28;19917;-62
2021/11/18 09:59:43;;;;;;;;;;;10.10;99.90;;;;;;5022418;28;19996;-63
2021/11/18 10:02:18;;;;;;;;;;;10.10;99.90;;;;;;5026144;28;20015;-62
2021/11/18 10:04:52;;;;;;;;;;;10.10;99.90;;;;;;5024202;28;20381;-62
2021/11/18 10:07:34;;;;;;;;;;;10.10;99.90;;;;;;5023773;28;19925;-62
2021/11/18 10:10:06;;;;;;;;;;;10.10;99.90;;;;;;5023715;28;20019;-62
2021/11/18 10:12:31;;;;;;;;;;;10.20;99.90;;;;;;5027252;28;20692;-62
2021/11/18 10:15:05;;;;;;;;;;;10.20;99.90;;;;;;5024605;28;19913;-61
2021/11/18 10:17:42;;;;;;;;;;;10.20;99.90;;;;;;5024030;28;20011;-62
2021/11/18 10:20:12;;;;;;;;;;;10.20;99.90;;;;;;5027106;28;19913;-62
2021/11/18 10:22:39;;;;;;;;;;;10.20;99.90;;;;;;5023100;28;19929;-62
2021/11/18 10:25:11;;;;;;;;;;;10.30;99.90;;;;;;5024550;28;20347;-63
2021/11/18 10:27:42;;;;;;;;;;;10.30;99.90;;;;;;5028050;28;20389;-62
2021/11/18 10:30:15;;;;;;;;;;;10.40;99.90;;;;;;5025800;28;20402;-62
2021/11/18 10:32:52;;;;;;;;;;;10.40;99.90;;;;;;5025327;28;19925;-62
2021/11/18 10:35:24;;;;;;;;;;;10.40;99.90;;;;;;5029404;28;19917;-62
2021/11/18 10:37:50;;;;;;;;;;;10.40;99.90;;;;;;5024040;28;20362;-62
2021/11/18 10:40:21;;;;;;;;;;;10.40;99.90;;;;;;5027117;28;19917;-62
2021/11/18 10:42:49;;;;;;;;;;;10.50;99.90;;;;;;5008417;28;19967;-62
2021/11/18 10:45:26;;;;;;;;;;;10.50;99.90;;;;;;5025749;28;19923;-62
2021/11/18 10:47:52;;;;;;;;;;;10.50;99.90;;;;;;5029568;28;19939;-62
2021/11/18 10:50:37;;;;;;;;;;;10.50;99.90;;;;;;5022664;28;20357;-62
2021/11/18 10:53:05;;;;;;;;;;;10.60;99.90;;;;;;5024088;28;21477;-62
2021/11/18 10:55:35;;;;;;;;;;;10.60;99.90;;;;;;5026697;28;19925;-62
2021/11/18 10:58:04;;;;;;;;;;;10.60;99.90;;;;;;5029132;28;19924;-62
2021/11/18 11:00:43;;;;;;;;;;;10.70;99.90;;;;;;5023437;28;20003;-62
2021/11/18 11:03:23;;;;;;;;;;;10.70;99.90;;;;;;5009298;28;20389;-63
2021/11/18 11:05:49;;;;;;;;;;;10.80;99.90;;;;;;5024162;28;20556;-62
2021/11/18 11:08:22;;;;;;;;;;;10.80;99.90;;;;;;5025158;28;19913;-62
2021/11/18 11:10:50;;;;;;;;;;;10.90;99.90;;;;;;5021266;28;20069;-62
2021/11/18 11:13:23;;;;;;;;;;;11.10;99.90;;;;;;5022839;28;19940;-62
2021/11/18 11:15:51;;;;;;;;;;;11.10;99.90;;;;;;5023770;28;20564;-63
2021/11/18 11:18:20;;;;;;;;;;;11.20;99.90;;;;;;5020979;28;21326;-62
2021/11/18 11:20:45;;;;;;;;;;;11.30;99.90;;;;;;5023640;28;19917;-63
2021/11/18 11:23:16;;;;;;;;;;;11.40;99.90;;;;;;5024231;28;20011;-62
2021/11/18 11:25:55;;;;;;;;;;;11.40;99.90;;;;;;5022150;28;19975;-62
2021/11/18 11:28:23;;;;;;;;;;;11.40;99.90;;;;;;5025260;28;19964;-62
2021/11/18 11:31:04;;;;;;;;;;;11.50;99.70;;;;;;5023286;28;19928;-63
2021/11/18 11:33:34;;;;;;;;;;;11.60;99.80;;;;;;5024165;28;19921;-63
2021/11/18 11:36:23;;;;;;;;;;;11.60;99.80;;;;;;5023237;28;19952;-63
2021/11/18 11:38:49;;;;;;;;;;;11.80;99.90;;;;;;5015686;28;19924;-63
2021/11/18 11:41:25;;;;;;;;;;;12.00;99.90;;;;;;5027734;28;19913;-63
2021/11/18 11:43:55;;;;;;;;;;;12.10;99.20;;;;;;5023171;28;19917;-62
2021/11/18 11:46:26;;;;;;;;;;;12.10;99.10;;;;;;5026044;28;19928;-62
2021/11/18 11:49:10;;;;;;;;;;;11.90;98.30;;;;;;5026067;28;20776;-61
2021/11/18 11:51:54;;;;;;;;;;;11.60;98.70;;;;;;5026380;28;19974;-62
2021/11/18 11:54:38;;;;;;;;;;;11.40;99.00;;;;;;5020303;28;19965;-62
2021/11/18 11:57:11;;;;;;;;;;;11.20;99.40;;;;;;5028139;28;19932;-61
2021/11/18 11:59:38;;;;;;;;;;;11.10;99.40;;;;;;5024855;28;19909;-62
2021/11/18 12:02:10;;;;;;;;;;;11.10;99.60;;;;;;5008822;28;19921;-62
2021/11/18 12:04:53;;;;;;;;;;;11.00;99.60;;;;;;5027130;28;19913;-62
2021/11/18 12:07:19;;;;;;;;;;;11.00;99.70;;;;;;5005561;28;19913;-62
2021/11/18 12:09:47;;;;;;;;;;;11.00;99.70;;;;;;5023303;28;19971;-63
2021/11/18 12:12:31;;;;;;;;;;;11.00;99.70;;;;;;5007176;28;19913;-62
2021/11/18 12:14:57;;;;;;;;;;;11.00;99.80;;;;;;5022544;28;20432;-62
2021/11/18 12:17:26;;;;;;;;;;;11.00;99.50;;;;;;5025249;28;20007;-62
2021/11/18 12:20:09;;;;;;;;;;;10.90;99.70;;;;;;5024614;28;20417;-62
2021/11/18 12:22:37;;;;;;;;;;;10.90;99.80;;;;;;5024782;28;19909;-62
2021/11/18 12:25:22;;;;;;;;;;;10.90;99.80;;;;;;5025712;28;20280;-62
2021/11/18 12:28:06;;;;;;;;;;;10.90;99.70;;;;;;5005808;28;19917;-62
2021/11/18 12:30:43;;;;;;;;;;;10.90;99.60;;;;;;5005219;28;19913;-62
2021/11/18 12:33:08;;;;;;;;;;;10.90;99.80;;;;;;5026420;28;19971;-62
2021/11/18 12:35:41;;;;;;;;;;;10.80;99.90;;;;;;5024957;28;19910;-62
2021/11/18 12:38:25;;;;;;;;;;;10.80;99.90;;;;;;5026465;28;19917;-62
2021/11/18 12:41:09;;;;;;;;;;;10.90;99.90;;;;;;5048617;22;20463;-68
2021/11/18 12:43:50;;;;;;;;;;;10.90;99.90;;;;;;5027881;28;20364;-68
2021/11/18 12:46:19;;;;;;;;;;;10.90;99.70;;;;;;5026622;28;19952;-68
2021/11/18 12:48:59;;;;;;;;;;;10.90;99.70;;;;;;5028571;28;19991;-69
2021/11/18 12:51:43;;;;;;;;;;;10.90;99.80;;;;;;5026275;28;20376;-68
2021/11/18 12:54:08;;;;;;;;;;;11.00;99.60;;;;;;5027356;28;19913;-68
2021/11/18 12:56:52;;;;;;;;;;;11.00;99.40;;;;;;5007804;28;19940;-68
2021/11/18 12:59:36;;;;;;;;;;;11.00;99.20;;;;;;5023776;28;19914;-68
2021/11/18 13:02:03;;;;;;;;;;;11.00;99.00;;;;;;5025411;28;19971;-68
2021/11/18 13:04:34;;;;;;;;;;;11.10;98.80;;;;;;5024575;28;19924;-69
2021/11/18 13:06:59;;;;;;;;;;;11.10;98.90;;;;;;5028001;28;19916;-69
2021/11/18 13:09:45;;;;;;;;;;;11.10;98.90;;;;;;5026255;28;19921;-67
2021/11/18 13:12:25;;;;;;;;;;;11.10;98.80;;;;;;5025628;28;20318;-68
2021/11/18 13:14:50;;;;;;;;;;;11.20;98.80;;;;;;5009109;28;20302;-69
2021/11/18 13:17:21;;;;;;;;;;;11.20;98.30;;;;;;5024495;28;19920;-69
2021/11/18 13:19:49;;;;;;;;;;;11.30;98.20;;;;;;5026140;28;19921;-70
2021/11/18 13:22:16;;;;;;;;;;;11.30;97.90;;;;;;5023966;28;19917;-69
2021/11/18 13:24:41;;;;;;;;;;;11.40;98.00;;;;;;5024211;28;20431;-69
2021/11/18 13:27:10;;;;;;;;;;;11.40;97.80;;;;;;5027528;28;19909;-68
2021/11/18 13:29:42;;;;;;;;;;;11.40;98.10;;;;;;5026449;28;19921;-67
2021/11/18 13:32:09;;;;;;;;;;;11.50;97.40;;;;;;5025060;28;19967;-66
2021/11/18 13:34:35;;;;;;;;;;;11.40;97.50;;;;;;5023651;28;19956;-67
2021/11/18 13:37:02;;;;;;;;;;;11.40;97.40;;;;;;5027351;28;19944;-66
2021/11/18 13:39:33;;;;;;;;;;;11.40;97.50;;;;;;5026660;28;19920;-66
2021/11/18 13:41:58;;;;;;;;;;;11.40;97.40;;;;;;5026530;28;19971;-66
2021/11/18 13:44:37;;;;;;;;;;;11.40;97.70;;;;;;5026324;28;19965;-66
2021/11/18 13:47:05;;;;;;;;;;;11.40;97.70;;;;;;5022662;28;19913;-67
2021/11/18 13:49:33;;;;;;;;;;;11.30;97.50;;;;;;5021670;28;19921;-67
2021/11/18 13:52:07;;;;;;;;;;;11.30;97.50;;;;;;5023423;28;19917;-66
2021/11/18 13:54:35;;;;;;;;;;;11.30;97.70;;;;;;5025576;28;19921;-66
2021/11/18 13:57:12;;;;;;;;;;;11.30;97.90;;;;;;5023233;28;19935;-66
2021/11/18 13:59:41;;;;;;;;;;;11.30;97.90;;;;;;5023944;28;19917;-66
2021/11/18 14:02:16;;;;;;;;;;;11.30;97.80;;;;;;5024269;28;20322;-66
2021/11/18 14:04:46;;;;;;;;;;;11.30;97.70;;;;;;5025002;28;19947;-66
2021/11/18 14:07:13;;;;;;;;;;;11.30;97.80;;;;;;5025640;28;19914;-67
2021/11/18 14:09:41;;;;;;;;;;;11.20;97.70;;;;;;5025424;28;20372;-67
2021/11/18 14:12:22;;;;;;;;;;;11.30;97.50;;;;;;5023943;28;19917;-66
2021/11/18 14:14:50;;;;;;;;;;;11.20;97.60;;;;;;5024649;28;19917;-67
2021/11/18 14:17:29;;;;;;;;;;;11.20;97.60;;;;;;5026170;28;19921;-67
2021/11/18 14:20:02;;;;;;;;;;;11.10;97.70;;;;;;5024066;28;19921;-67
2021/11/18 14:22:29;;;;;;;;;;;11.10;97.60;;;;;;5010523;28;20291;-67
2021/11/18 14:24:57;;;;;;;;;;;11.10;97.60;;;;;;5023818;28;19913;-67
2021/11/18 14:27:22;;;;;;;;;;;11.00;97.70;;;;;;5026539;28;20388;-66
2021/11/18 14:30:09;;;;;;;;;;;11.00;97.70;;;;;;5025355;28;19920;-66
2021/11/18 14:32:40;;;;;;;;;;;11.00;97.70;;;;;;5025933;28;19957;-66